createdAt,value
2019-04-28T00:01:41.377Z,7.96
2019-04-28T00:04:11.598Z,7.99
2019-04-28T00:06:42.352Z,8.05
2019-04-28T00:09:13.362Z,7.97
2019-04-28T00:11:43.471Z,8.03
2019-04-28T00:14:13.662Z,8.00
2019-04-28T00:16:43.804Z,7.97
2019-04-28T00:19:13.875Z,7.96
2019-04-28T00:21:58.878Z,7.95
2019-04-28T00:24:51.512Z,8.11
2019-04-28T00:27:21.738Z,8.03
2019-04-28T00:29:52.905Z,7.94
2019-04-28T00:32:23.125Z,8.00
2019-04-28T00:34:53.184Z,8.03
2019-04-28T00:37:34.861Z,7.98
2019-04-28T00:40:07.242Z,7.93
2019-04-28T00:42:37.360Z,7.95
2019-04-28T00:45:09.230Z,7.91
2019-04-28T00:47:40.834Z,7.86
2019-04-28T00:50:11.776Z,7.85
2019-04-28T00:52:42.016Z,7.98
2019-04-28T00:55:12.168Z,8.00
2019-04-28T00:57:42.426Z,7.97
2019-04-28T01:00:13.591Z,7.88
2019-04-28T01:02:44.145Z,7.94
2019-04-28T01:05:14.552Z,7.90
2019-04-28T01:07:44.656Z,7.84
2019-04-28T01:10:15.118Z,7.85
2019-04-28T01:12:46.744Z,7.84
2019-04-28T01:15:39.529Z,7.85
2019-04-28T01:18:16.248Z,7.86
2019-04-28T01:20:46.307Z,7.81
2019-04-28T01:23:16.382Z,7.80
2019-04-28T01:25:50.064Z,7.78
2019-04-28T01:28:21.344Z,7.80
2019-04-28T01:31:16.576Z,7.79
2019-04-28T01:34:05.606Z,7.77
2019-04-28T01:36:37.474Z,7.76
2019-04-28T01:39:09.929Z,7.76
2019-04-28T01:41:39.911Z,7.75
2019-04-28T01:44:10.322Z,7.78
2019-04-28T01:46:40.524Z,7.85
2019-04-28T01:49:10.623Z,7.87
2019-04-28T01:51:41.596Z,7.76
2019-04-28T01:54:11.880Z,7.72
2019-04-28T01:56:41.938Z,7.65
2019-04-28T01:59:12.014Z,7.62
2019-04-28T02:01:42.378Z,7.72
2019-04-28T02:04:12.548Z,7.68
2019-04-28T02:06:42.626Z,7.68
2019-04-28T02:09:12.816Z,7.71
2019-04-28T02:11:42.905Z,7.70
2019-04-28T02:14:12.982Z,7.65
2019-04-28T02:16:43.087Z,7.64
2019-04-28T02:19:13.153Z,7.72
2019-04-28T02:21:49.641Z,7.72
2019-04-28T02:24:30.775Z,7.79
2019-04-28T02:27:01.696Z,7.78
2019-04-28T02:29:31.745Z,7.73
2019-04-28T02:32:02.479Z,7.73
2019-04-28T02:34:32.829Z,7.69
2019-04-28T02:37:02.886Z,7.65
2019-04-28T02:39:32.956Z,7.65
2019-04-28T02:42:03.033Z,7.61
2019-04-28T02:44:35.095Z,7.67
2019-04-28T02:47:05.043Z,7.66
2019-04-28T02:49:42.318Z,7.61
2019-04-28T02:52:22.449Z,7.56
2019-04-28T02:54:52.552Z,7.59
2019-04-28T02:57:22.661Z,7.65
2019-04-28T02:59:52.728Z,7.61
2019-04-28T03:02:22.918Z,7.63
2019-04-28T03:04:52.996Z,7.65
2019-04-28T03:07:23.079Z,7.60
2019-04-28T03:09:53.166Z,7.59
2019-04-28T03:12:23.239Z,7.60
2019-04-28T03:14:53.320Z,7.52
2019-04-28T03:17:23.404Z,7.59
2019-04-28T03:19:53.503Z,7.51
2019-04-28T03:22:23.588Z,7.54
2019-04-28T03:24:57.444Z,7.54
2019-04-28T03:27:34.681Z,7.41
2019-04-28T03:30:23.963Z,7.45
2019-04-28T03:33:00.236Z,7.54
2019-04-28T03:35:26.291Z,7.48
2019-04-28T03:37:56.464Z,7.45
2019-04-28T03:40:26.585Z,7.45
2019-04-28T03:42:59.464Z,7.45
2019-04-28T03:45:33.071Z,7.47
2019-04-28T03:48:03.143Z,7.51
2019-04-28T03:50:33.256Z,7.49
2019-04-28T03:53:03.337Z,7.51
2019-04-28T03:55:34.965Z,7.49
2019-04-28T03:58:05.215Z,7.54
2019-04-28T04:00:35.301Z,7.48
2019-04-28T04:03:05.361Z,7.44
2019-04-28T04:05:35.466Z,7.50
2019-04-28T04:08:05.547Z,7.44
2019-04-28T04:10:50.155Z,7.44
2019-04-28T04:13:33.000Z,7.38
2019-04-28T04:16:20.903Z,7.40
2019-04-28T04:18:53.620Z,7.42
2019-04-28T04:21:24.193Z,7.41
2019-04-28T04:23:54.279Z,7.44
2019-04-28T04:26:24.355Z,7.49
2019-04-28T04:28:54.429Z,7.48
2019-04-28T04:31:24.493Z,7.49
2019-04-28T04:33:54.580Z,7.48
2019-04-28T04:36:24.658Z,7.46
2019-04-28T04:38:54.728Z,7.50
2019-04-28T04:41:24.850Z,7.41
2019-04-28T04:43:54.922Z,7.49
2019-04-28T04:46:25.897Z,7.48
2019-04-28T04:48:56.013Z,7.47
2019-04-28T04:51:26.082Z,7.40
2019-04-28T04:53:56.151Z,7.42
2019-04-28T04:56:26.336Z,7.46
2019-04-28T04:58:56.589Z,7.52
2019-04-28T05:01:35.546Z,7.52
2019-04-28T05:04:14.709Z,7.46
2019-04-28T05:06:44.769Z,7.38
2019-04-28T05:09:14.878Z,7.43
2019-04-28T05:11:44.961Z,7.49
2019-04-28T05:14:15.062Z,7.46
2019-04-28T05:16:45.135Z,7.42
2019-04-28T05:19:15.233Z,7.32
2019-04-28T05:21:45.275Z,7.46
2019-04-28T05:24:40.423Z,7.42
2019-04-28T05:27:10.508Z,7.40
2019-04-28T05:29:40.607Z,7.34
2019-04-28T05:32:10.896Z,7.38
2019-04-28T05:34:46.725Z,7.48
2019-04-28T05:37:12.926Z,7.60
2019-04-28T05:39:43.054Z,7.51
2019-04-28T05:42:13.149Z,7.50
2019-04-28T05:44:43.240Z,7.42
2019-04-28T05:47:13.287Z,7.56
2019-04-28T05:50:07.252Z,7.57
2019-04-28T05:53:00.564Z,7.54
2019-04-28T05:56:02.295Z,7.57
2019-04-28T05:58:37.808Z,7.52
2019-04-28T06:01:21.888Z,7.44
2019-04-28T06:03:51.966Z,7.48
2019-04-28T06:06:24.221Z,7.46
2019-04-28T06:09:16.108Z,7.37
2019-04-28T06:11:46.185Z,7.30
2019-04-28T06:14:16.234Z,7.37
2019-04-28T06:16:46.338Z,7.44
2019-04-28T06:19:16.430Z,7.49
2019-04-28T06:21:46.500Z,7.41
2019-04-28T06:24:16.561Z,7.33
2019-04-28T06:26:46.666Z,7.36
2019-04-28T06:29:17.065Z,7.40
2019-04-28T06:31:47.188Z,7.43
2019-04-28T06:34:17.241Z,7.46
2019-04-28T06:36:47.369Z,7.47
2019-04-28T06:39:17.448Z,7.51
2019-04-28T06:41:47.546Z,7.34
2019-04-28T06:44:17.592Z,7.49
2019-04-28T06:46:47.691Z,7.46
2019-04-28T06:49:17.762Z,7.45
2019-04-28T06:51:47.846Z,7.47
2019-04-28T06:54:17.905Z,7.53
2019-04-28T06:56:48.032Z,7.53
2019-04-28T06:59:18.139Z,7.56
2019-04-28T07:01:48.246Z,7.58
2019-04-28T07:04:18.350Z,7.67
2019-04-28T07:06:48.471Z,7.73
2019-04-28T07:09:18.590Z,7.79
2019-04-28T07:11:48.657Z,7.82
2019-04-28T07:14:18.757Z,7.68
2019-04-28T07:16:48.919Z,7.71
2019-04-28T07:19:18.977Z,7.73
2019-04-28T07:22:12.001Z,7.60
2019-04-28T07:24:44.785Z,7.61
2019-04-28T07:27:14.025Z,7.61
2019-04-28T07:29:44.131Z,7.66
2019-04-28T07:32:14.307Z,7.60
2019-04-28T07:34:44.410Z,7.56
2019-04-28T07:37:14.492Z,7.54
2019-04-28T07:39:44.613Z,7.63
2019-04-28T07:42:14.707Z,7.67
2019-04-28T07:44:44.865Z,7.61
2019-04-28T07:47:14.998Z,7.77
2019-04-28T07:49:45.071Z,7.88
2019-04-28T07:52:24.540Z,8.07
2019-04-28T07:54:54.696Z,8.23
2019-04-28T07:57:24.934Z,8.27
2019-04-28T07:59:55.015Z,8.21
2019-04-28T08:02:25.438Z,7.99
2019-04-28T08:04:55.540Z,8.11
2019-04-28T08:07:25.767Z,8.10
2019-04-28T08:09:55.867Z,7.87
2019-04-28T08:12:25.992Z,7.81
2019-04-28T08:14:56.094Z,7.63
2019-04-28T08:17:26.201Z,7.64
2019-04-28T08:19:56.299Z,7.65
2019-04-28T08:22:26.414Z,7.65
2019-04-28T08:24:56.483Z,7.58
2019-04-28T08:27:26.631Z,7.58
2019-04-28T08:29:58.715Z,7.52
2019-04-28T08:32:47.654Z,7.55
2019-04-28T08:35:17.772Z,7.58
2019-04-28T08:37:47.835Z,7.61
2019-04-28T08:40:17.977Z,7.65
2019-04-28T08:42:48.066Z,7.90
2019-04-28T08:45:18.205Z,7.97
2019-04-28T08:47:48.352Z,7.93
2019-04-28T08:50:18.475Z,7.93
2019-04-28T08:52:48.562Z,7.89
2019-04-28T08:55:18.638Z,7.72
2019-04-28T08:57:48.772Z,7.81
2019-04-28T09:00:18.981Z,7.75
2019-04-28T09:02:49.130Z,7.68
2019-04-28T09:05:19.237Z,7.78
2019-04-28T09:07:49.356Z,7.82
2019-04-28T09:10:19.481Z,7.85
2019-04-28T09:12:49.594Z,7.93
2019-04-28T09:15:19.695Z,8.01
2019-04-28T09:17:49.841Z,7.95
2019-04-28T09:20:20.198Z,7.97
2019-04-28T09:22:50.274Z,8.14
2019-04-28T09:25:20.403Z,8.06
2019-04-28T09:27:50.521Z,8.07
2019-04-28T09:30:22.382Z,8.20
2019-04-28T09:32:52.514Z,8.33
2019-04-28T09:35:22.664Z,8.63
2019-04-28T09:37:55.265Z,8.61
2019-04-28T09:40:25.383Z,8.50
2019-04-28T09:43:01.279Z,8.33
2019-04-28T09:45:37.773Z,8.25
2019-04-28T09:48:07.871Z,8.44
2019-04-28T09:50:38.068Z,8.38
2019-04-28T09:53:08.154Z,8.20
2019-04-28T09:55:40.669Z,8.31
2019-04-28T09:58:11.060Z,8.44
2019-04-28T10:00:42.762Z,8.68
2019-04-28T10:03:12.856Z,8.63
2019-04-28T10:05:43.019Z,8.62
2019-04-28T10:08:13.159Z,8.68
2019-04-28T10:10:43.298Z,8.61
2019-04-28T10:13:13.499Z,8.49
2019-04-28T10:15:43.582Z,8.37
2019-04-28T10:18:13.704Z,8.31
2019-04-28T10:20:43.841Z,8.33
2019-04-28T10:23:13.946Z,8.28
2019-04-28T10:25:44.246Z,8.39
2019-04-28T10:28:14.417Z,8.32
2019-04-28T10:30:44.546Z,8.50
2019-04-28T10:33:14.694Z,8.39
2019-04-28T10:35:47.387Z,8.20
2019-04-28T10:38:17.504Z,8.19
2019-04-28T10:40:56.732Z,8.09
2019-04-28T10:43:29.942Z,8.01
2019-04-28T10:46:00.298Z,7.88
2019-04-28T10:48:30.501Z,8.01
2019-04-28T10:51:01.316Z,7.84
2019-04-28T10:53:31.517Z,7.87
2019-04-28T10:56:01.654Z,7.90
2019-04-28T10:58:31.717Z,7.95
2019-04-28T11:01:01.894Z,8.23
2019-04-28T11:03:32.013Z,8.30
2019-04-28T11:06:02.193Z,8.42
2019-04-28T11:09:03.508Z,8.65
2019-04-28T11:11:33.725Z,8.74
2019-04-28T11:14:03.882Z,8.85
2019-04-28T11:16:36.931Z,8.81
2019-04-28T11:19:07.395Z,8.90
2019-04-28T11:21:37.523Z,8.76
2019-04-28T11:24:07.726Z,9.01
2019-04-28T11:26:37.948Z,8.89
2019-04-28T11:29:08.212Z,9.15
2019-04-28T11:31:38.291Z,9.06
2019-04-28T11:34:33.422Z,9.44
2019-04-28T11:37:03.756Z,9.45
2019-04-28T11:39:36.486Z,9.71
2019-04-28T11:42:06.650Z,9.55
2019-04-28T11:44:36.754Z,9.83
2019-04-28T11:47:09.715Z,10.24
2019-04-28T11:49:39.826Z,10.75
2019-04-28T11:52:10.138Z,10.34
2019-04-28T11:54:40.274Z,10.39
2019-04-28T11:57:10.368Z,10.54
2019-04-28T11:59:41.939Z,10.74
2019-04-28T12:02:12.049Z,10.68
2019-04-28T12:04:42.213Z,11.64
2019-04-28T12:07:12.445Z,12.10
2019-04-28T12:10:03.726Z,12.20
2019-04-28T12:12:33.016Z,11.89
2019-04-28T12:15:22.049Z,11.69
2019-04-28T12:18:10.011Z,11.48
2019-04-28T12:20:40.548Z,11.68
2019-04-28T12:23:10.644Z,11.40
2019-04-28T12:25:40.916Z,11.55
2019-04-28T12:28:11.020Z,11.65
2019-04-28T12:30:41.172Z,11.83
2019-04-28T12:33:12.986Z,11.90
2019-04-28T12:35:48.097Z,12.24
2019-04-28T12:38:15.231Z,11.88
2019-04-28T12:40:45.400Z,11.66
2019-04-28T12:43:15.495Z,11.58
2019-04-28T12:45:45.625Z,11.41
2019-04-28T12:48:15.757Z,11.10
2019-04-28T12:50:50.586Z,11.22
2019-04-28T12:53:20.909Z,11.24
2019-04-28T12:55:51.083Z,11.48
2019-04-28T12:58:21.194Z,11.79
2019-04-28T13:01:07.502Z,11.46
2019-04-28T13:03:42.015Z,11.66
2019-04-28T13:06:14.740Z,11.66
2019-04-28T13:08:44.848Z,11.48
2019-04-28T13:11:14.949Z,11.71
2019-04-28T13:13:46.891Z,11.34
2019-04-28T13:16:16.924Z,11.28
2019-04-28T13:18:47.048Z,11.16
2019-04-28T13:21:17.185Z,10.87
2019-04-28T13:23:47.360Z,11.19
2019-04-28T13:26:17.556Z,10.93
2019-04-28T13:28:47.726Z,11.18
2019-04-28T13:31:17.847Z,11.07
2019-04-28T13:33:56.472Z,10.93
2019-04-28T13:36:19.982Z,10.59
2019-04-28T13:38:50.119Z,10.25
2019-04-28T13:41:22.425Z,10.20
2019-04-28T13:43:53.226Z,10.32
2019-04-28T13:46:24.401Z,10.32
2019-04-28T13:48:58.082Z,10.45
2019-04-28T13:51:28.278Z,10.35
2019-04-28T13:54:00.046Z,10.49
2019-04-28T13:56:32.392Z,10.43
2019-04-28T13:59:21.126Z,10.33
2019-04-28T14:02:01.536Z,10.53
2019-04-28T14:04:47.426Z,10.46
2019-04-28T14:07:18.511Z,10.79
2019-04-28T14:09:50.089Z,10.94
2019-04-28T14:12:21.176Z,11.34
2019-04-28T14:14:51.751Z,11.54
2019-04-28T14:17:22.535Z,11.69
2019-04-28T14:19:52.638Z,11.72
2019-04-28T14:22:23.240Z,12.14
2019-04-28T14:24:53.701Z,12.30
2019-04-28T14:27:24.043Z,12.52
2019-04-28T14:29:54.268Z,12.94
2019-04-28T14:32:24.379Z,13.82
2019-04-28T14:34:54.667Z,14.88
2019-04-28T14:37:24.885Z,14.80
2019-04-28T14:39:55.809Z,14.88
2019-04-28T14:42:25.971Z,16.38
2019-04-28T14:44:56.548Z,16.19
2019-04-28T14:47:30.662Z,16.06
2019-04-28T14:50:02.908Z,15.35
2019-04-28T14:52:33.737Z,14.70
2019-04-28T14:55:03.983Z,15.44
2019-04-28T14:57:34.124Z,14.55
2019-04-28T15:00:04.757Z,15.26
2019-04-28T15:02:42.560Z,15.03
2019-04-28T15:05:39.303Z,13.98
2019-04-28T15:08:41.515Z,14.08
2019-04-28T15:11:17.907Z,13.73
2019-04-28T15:13:48.182Z,13.53
2019-04-28T15:16:18.683Z,13.47
2019-04-28T15:18:48.819Z,13.44
2019-04-28T15:21:19.284Z,13.01
2019-04-28T15:23:52.400Z,13.82
2019-04-28T15:26:22.914Z,15.55
2019-04-28T15:28:53.588Z,17.33
2019-04-28T15:31:23.846Z,17.12
2019-04-28T15:33:54.180Z,17.07
2019-04-28T15:36:24.853Z,17.62
2019-04-28T15:38:54.990Z,17.70
2019-04-28T15:41:25.416Z,17.90
2019-04-28T15:43:55.714Z,17.80
2019-04-28T15:46:25.936Z,17.54
2019-04-28T15:48:56.386Z,17.31
2019-04-28T15:51:30.594Z,18.33
2019-04-28T15:54:01.016Z,17.33
2019-04-28T15:57:02.462Z,18.09
2019-04-28T15:59:36.491Z,15.63
2019-04-28T16:02:07.092Z,17.69
2019-04-28T16:04:38.572Z,17.71
2019-04-28T16:07:08.710Z,17.32
2019-04-28T16:09:41.030Z,17.43
2019-04-28T16:12:11.044Z,15.99
2019-04-28T16:14:41.413Z,16.61
2019-04-28T16:17:11.539Z,15.39
2019-04-28T16:19:41.796Z,14.63
2019-04-28T16:22:12.573Z,14.36
2019-04-28T16:24:44.794Z,13.87
2019-04-28T16:27:15.442Z,15.37
2019-04-28T16:29:45.692Z,14.27
2019-04-28T16:32:15.811Z,13.93
2019-04-28T16:34:45.962Z,14.53
2019-04-28T16:37:16.117Z,14.31
2019-04-28T16:39:46.208Z,13.58
2019-04-28T16:42:31.217Z,13.28
2019-04-28T16:45:22.265Z,12.64
2019-04-28T16:47:52.464Z,12.47
2019-04-28T16:50:22.554Z,12.31
2019-04-28T16:52:52.704Z,12.30
2019-04-28T16:55:27.289Z,12.50
2019-04-28T16:58:34.802Z,12.55
2019-04-28T17:01:20.267Z,12.13
2019-04-28T17:03:50.398Z,11.85
2019-04-28T17:06:20.535Z,11.79
2019-04-28T17:08:50.672Z,11.70
2019-04-28T17:11:20.870Z,11.77
2019-04-28T17:13:51.079Z,11.86
2019-04-28T17:16:21.254Z,11.93
2019-04-28T17:18:51.405Z,11.80
2019-04-28T17:21:21.627Z,11.64
2019-04-28T17:23:51.783Z,11.54
2019-04-28T17:26:21.901Z,11.43
2019-04-28T17:28:52.126Z,11.44
2019-04-28T17:31:22.285Z,11.61
2019-04-28T17:33:52.466Z,11.70
2019-04-28T17:36:22.770Z,11.50
2019-04-28T17:38:53.028Z,11.28
2019-04-28T17:41:26.822Z,11.30
2019-04-28T17:43:56.976Z,11.28
2019-04-28T17:46:27.121Z,11.18
2019-04-28T17:48:58.723Z,11.21
2019-04-28T17:51:29.091Z,11.27
2019-04-28T17:53:59.658Z,11.28
2019-04-28T17:56:29.852Z,11.18
2019-04-28T17:59:00.089Z,10.93
2019-04-28T18:01:58.616Z,10.73
2019-04-28T18:04:39.773Z,10.64
2019-04-28T18:07:14.046Z,10.43
2019-04-28T18:09:44.319Z,10.32
2019-04-28T18:12:14.465Z,10.22
2019-04-28T18:14:46.481Z,10.19
2019-04-28T18:17:44.892Z,10.03
2019-04-28T18:20:15.211Z,9.97
2019-04-28T18:22:45.339Z,9.90
2019-04-28T18:25:15.571Z,9.86
2019-04-28T18:27:45.786Z,9.78
2019-04-28T18:30:17.854Z,9.76
2019-04-28T18:33:00.228Z,9.65
2019-04-28T18:35:38.386Z,9.51
2019-04-28T18:38:14.866Z,9.44
2019-04-28T18:41:09.907Z,9.39
2019-04-28T18:43:59.609Z,9.31
2019-04-28T18:46:31.107Z,9.18
2019-04-28T18:49:01.490Z,9.04
2019-04-28T18:51:31.823Z,9.02
2019-04-28T18:54:04.374Z,8.88
2019-04-28T18:56:34.749Z,8.83
2019-04-28T18:59:06.529Z,8.70
2019-04-28T19:01:54.748Z,8.68
2019-04-28T19:04:25.098Z,8.57
2019-04-28T19:07:04.812Z,8.61
2019-04-28T19:09:59.283Z,8.70
2019-04-28T19:12:42.861Z,8.69
2019-04-28T19:15:37.881Z,8.53
2019-04-28T19:18:12.635Z,8.45
2019-04-28T19:20:48.845Z,8.38
2019-04-28T19:23:19.177Z,8.24
2019-04-28T19:25:49.555Z,8.26
2019-04-28T19:28:23.333Z,8.19
2019-04-28T19:30:54.099Z,8.09
2019-04-28T19:33:24.525Z,8.04
2019-04-28T19:35:55.040Z,8.06
2019-04-28T19:38:25.463Z,8.01
2019-04-28T19:40:55.998Z,7.99
2019-04-28T19:43:26.467Z,7.90
2019-04-28T19:45:58.566Z,7.79
2019-04-28T19:48:29.333Z,7.72
2019-04-28T19:50:59.990Z,7.66
2019-04-28T19:53:31.920Z,7.61
2019-04-28T19:56:14.585Z,7.69
2019-04-28T19:58:56.645Z,7.60
2019-04-28T20:01:29.145Z,7.63
2019-04-28T20:04:00.056Z,7.49
2019-04-28T20:06:31.924Z,7.47
2019-04-28T20:09:05.450Z,7.38
2019-04-28T20:11:35.872Z,7.31
2019-04-28T20:14:06.104Z,7.23
2019-04-28T20:16:36.433Z,7.27
2019-04-28T20:19:06.688Z,7.20
2019-04-28T20:21:36.966Z,7.25
2019-04-28T20:24:09.772Z,7.29
2019-04-28T20:26:41.088Z,7.18
2019-04-28T20:29:11.347Z,7.12
2019-04-28T20:31:41.517Z,7.08
2019-04-28T20:34:14.755Z,6.95
2019-04-28T20:36:59.299Z,6.89
2019-04-28T20:39:31.284Z,6.87
2019-04-28T20:42:19.131Z,6.86
2019-04-28T20:44:49.574Z,6.93
2019-04-28T20:47:19.700Z,6.76
2019-04-28T20:49:49.822Z,6.72
2019-04-28T20:52:19.941Z,6.78
2019-04-28T20:54:50.052Z,6.83
2019-04-28T20:57:20.145Z,6.80
2019-04-28T20:59:50.282Z,6.64
2019-04-28T21:02:20.394Z,6.67
2019-04-28T21:04:50.498Z,6.56
2019-04-28T21:07:20.658Z,6.72
2019-04-28T21:09:50.747Z,6.80
2019-04-28T21:12:20.851Z,6.74
2019-04-28T21:14:51.029Z,6.71
2019-04-28T21:17:21.154Z,6.81
2019-04-28T21:19:51.270Z,6.67
2019-04-28T21:22:21.355Z,6.73
2019-04-28T21:24:51.533Z,6.55
2019-04-28T21:27:21.604Z,6.46
2019-04-28T21:29:51.842Z,6.39
2019-04-28T21:32:21.903Z,6.41
2019-04-28T21:34:52.073Z,6.29
2019-04-28T21:37:22.179Z,6.29
2019-04-28T21:39:52.333Z,6.25
2019-04-28T21:42:24.509Z,6.21
2019-04-28T21:45:13.606Z,6.13
2019-04-28T21:47:43.687Z,6.07
2019-04-28T21:50:13.774Z,6.08
2019-04-28T21:52:43.872Z,6.07
2019-04-28T21:55:14.006Z,6.08
2019-04-28T21:57:47.025Z,6.14
2019-04-28T22:00:18.108Z,6.16
2019-04-28T22:02:48.182Z,6.14
2019-04-28T22:05:29.913Z,6.04
2019-04-28T22:07:50.051Z,5.96
2019-04-28T22:10:20.141Z,5.90
2019-04-28T22:12:50.227Z,5.94
2019-04-28T22:15:20.303Z,5.92
2019-04-28T22:17:50.438Z,5.87
2019-04-28T22:20:20.493Z,5.86
2019-04-28T22:22:50.620Z,5.90
2019-04-28T22:25:22.605Z,5.97
2019-04-28T22:27:52.688Z,5.90
2019-04-28T22:30:22.779Z,5.95
2019-04-28T22:32:52.881Z,5.94
2019-04-28T22:35:22.957Z,5.94
2019-04-28T22:37:53.018Z,5.92
2019-04-28T22:40:23.130Z,5.94
2019-04-28T22:42:53.221Z,5.93
2019-04-28T22:45:23.315Z,5.91
2019-04-28T22:47:53.370Z,5.92
2019-04-28T22:50:38.090Z,5.91
2019-04-28T22:53:08.157Z,5.91
2019-04-28T22:55:43.775Z,5.97
2019-04-28T22:58:28.730Z,5.97
2019-04-28T23:01:02.910Z,6.02
2019-04-28T23:03:38.602Z,6.00
2019-04-28T23:06:10.456Z,5.96
2019-04-28T23:08:40.478Z,6.00
2019-04-28T23:11:10.580Z,6.02
2019-04-28T23:13:40.643Z,6.00
2019-04-28T23:16:10.759Z,5.99
2019-04-28T23:18:40.798Z,5.97
2019-04-28T23:21:29.067Z,6.07
2019-04-28T23:23:59.134Z,6.04
2019-04-28T23:26:29.341Z,5.97
2019-04-28T23:28:59.470Z,6.00
2019-04-28T23:31:29.558Z,6.04
2019-04-28T23:33:59.651Z,6.07
2019-04-28T23:36:29.744Z,6.01
2019-04-28T23:38:59.838Z,5.91
2019-04-28T23:41:35.857Z,5.89
2019-04-28T23:44:06.166Z,5.86
2019-04-28T23:46:53.948Z,5.78
2019-04-28T23:49:24.228Z,5.84
2019-04-28T23:52:13.293Z,5.84
2019-04-28T23:54:44.828Z,5.86
2019-04-28T23:57:14.941Z,5.81
2019-04-28T23:59:45.299Z,5.84
